Terminal Aerodrome Forecast
Issued by NWS Blacksburg, VA

Home | Current Version | Previous Version | Text Only | Print | Product List | Glossary On
Versions: 1 2 3 4 5 6 7 8 9 10 11 12 13 14 15 16 17 18 19 20 21 22 23 24 25 26 27 28 29 30 31 32 33 34
000
FTUS41 KRNK 162349
TAFDAN
TAF
KDAN 162349Z 1700/1724 VRB04KT P6SM FEW025
     FM170200 00000KT P6SM OVC025
     FM170400 00000KT P6SM OVC015
     FM170700 VRB03KT P6SM OVC008
     FM171400 20005KT P6SM VCSH OVC012=

USA.gov is the U.S. government's official web portal to all federal, state and local government web resources and services.